createdAt,value
2018-05-24T00:01:45.573Z,8.60
2018-05-24T00:04:13.966Z,9.35
2018-05-24T00:06:42.020Z,9.82
2018-05-24T00:09:10.077Z,9.70
2018-05-24T00:11:38.417Z,9.95
2018-05-24T00:14:07.237Z,9.45
2018-05-24T00:16:35.312Z,10.23
2018-05-24T00:19:03.584Z,10.40
2018-05-24T00:21:31.660Z,10.52
2018-05-24T00:23:59.721Z,10.45
2018-05-24T00:26:27.849Z,11.70
2018-05-24T00:28:55.921Z,11.75
2018-05-24T00:31:23.965Z,11.73
2018-05-24T00:33:52.055Z,10.50
2018-05-24T00:36:20.901Z,10.10
2018-05-24T00:38:51.441Z,11.53
2018-05-24T00:41:20.065Z,11.63
2018-05-24T00:43:48.109Z,14.00
2018-05-24T00:46:16.869Z,13.23
2018-05-24T00:48:45.201Z,12.83
2018-05-24T00:51:13.273Z,13.10
2018-05-24T00:53:41.348Z,12.43
2018-05-24T00:56:10.205Z,11.63
2018-05-24T00:58:38.293Z,13.23
2018-05-24T01:01:06.349Z,13.20
2018-05-24T01:03:35.265Z,13.00
2018-05-24T01:06:04.106Z,14.33
2018-05-24T01:08:32.222Z,14.07
2018-05-24T01:11:01.068Z,14.97
2018-05-24T01:13:29.140Z,13.53
2018-05-24T01:15:57.237Z,14.60
2018-05-24T01:18:25.340Z,15.70
2018-05-24T01:20:53.417Z,14.10
2018-05-24T01:23:22.272Z,15.13
2018-05-24T01:25:50.561Z,15.73
2018-05-24T01:28:18.616Z,16.77
2018-05-24T01:30:46.706Z,14.83
2018-05-24T01:33:14.981Z,13.63
2018-05-24T01:35:43.066Z,12.97
2018-05-24T01:38:11.105Z,13.80
2018-05-24T01:40:39.205Z,13.40
2018-05-24T01:43:07.249Z,14.37
2018-05-24T01:45:35.309Z,13.10
2018-05-24T01:48:03.688Z,13.50
2018-05-24T01:50:31.760Z,13.60
2018-05-24T01:52:59.828Z,13.63
2018-05-24T01:55:27.918Z,15.40
2018-05-24T01:57:56.188Z,16.00
2018-05-24T02:00:24.278Z,16.50
2018-05-24T02:02:52.373Z,14.57
2018-05-24T02:05:21.225Z,14.23
2018-05-24T02:07:49.308Z,15.03
2018-05-24T02:10:17.560Z,15.83
2018-05-24T02:12:45.633Z,17.33
2018-05-24T02:15:13.700Z,15.97
2018-05-24T02:17:41.793Z,15.87
2018-05-24T02:20:09.886Z,14.97
2018-05-24T02:22:37.961Z,13.90
2018-05-24T02:25:06.848Z,17.80
2018-05-24T02:27:34.890Z,16.73
2018-05-24T02:30:03.461Z,14.30
2018-05-24T02:32:31.567Z,14.17
2018-05-24T02:34:59.645Z,13.87
2018-05-24T02:37:28.803Z,14.93
2018-05-24T02:39:56.901Z,15.53
2018-05-24T02:42:24.987Z,15.07
2018-05-24T02:44:53.078Z,14.67
2018-05-24T02:47:21.949Z,14.90
2018-05-24T02:49:50.028Z,15.93
2018-05-24T02:52:19.305Z,18.23
2018-05-24T02:54:47.392Z,17.03
2018-05-24T02:57:16.261Z,17.93
2018-05-24T02:59:44.645Z,19.37
2018-05-24T03:02:12.701Z,18.80
2018-05-24T03:04:40.761Z,18.33
2018-05-24T03:07:08.874Z,17.97
2018-05-24T03:09:36.917Z,19.10
2018-05-24T03:12:04.981Z,20.63
2018-05-24T03:14:33.265Z,19.80
2018-05-24T03:17:01.325Z,18.93
2018-05-24T03:19:29.396Z,19.93
2018-05-24T03:21:57.805Z,18.97
2018-05-24T03:24:25.860Z,18.73
2018-05-24T03:26:53.929Z,17.73
2018-05-24T03:29:22.305Z,17.70
2018-05-24T03:31:50.481Z,18.07
2018-05-24T03:34:18.578Z,15.83
2018-05-24T03:36:46.678Z,16.43
2018-05-24T03:39:14.749Z,18.30
2018-05-24T03:41:42.792Z,18.80
2018-05-24T03:44:10.917Z,18.90
2018-05-24T03:46:38.993Z,18.37
2018-05-24T03:49:07.081Z,17.33
2018-05-24T03:51:35.485Z,18.60
2018-05-24T03:54:03.528Z,17.40
2018-05-24T03:56:31.592Z,17.53
2018-05-24T03:59:00.175Z,17.87
2018-05-24T04:01:28.273Z,18.03
2018-05-24T04:03:56.357Z,18.23
2018-05-24T04:06:24.725Z,17.90
2018-05-24T04:08:52.881Z,17.93
2018-05-24T04:11:20.970Z,19.63
2018-05-24T04:13:49.350Z,19.47
2018-05-24T04:16:17.434Z,18.67
2018-05-24T04:18:45.513Z,19.27
2018-05-24T04:21:14.597Z,20.87
2018-05-24T04:23:43.284Z,19.20
2018-05-24T04:26:12.119Z,19.73
2018-05-24T04:28:40.965Z,20.17
2018-05-24T04:31:09.801Z,19.17
2018-05-24T04:33:37.909Z,18.23
2018-05-24T04:36:06.905Z,19.73
2018-05-24T04:38:34.960Z,18.98
2018-05-24T04:41:03.048Z,18.67
2018-05-24T04:43:31.397Z,16.27
2018-05-24T04:45:59.496Z,16.98
2018-05-24T04:48:28.460Z,18.00
2018-05-24T04:50:57.586Z,19.50
2018-05-24T04:53:25.672Z,18.30
2018-05-24T04:55:53.712Z,18.37
2018-05-24T04:58:22.725Z,19.45
2018-05-24T05:00:51.521Z,18.47
2018-05-24T05:03:20.169Z,19.50
2018-05-24T05:05:49.070Z,22.08
2018-05-24T05:08:18.489Z,20.67
2018-05-24T05:10:47.130Z,21.90
2018-05-24T05:13:15.937Z,22.17
2018-05-24T05:15:45.073Z,23.95
2018-05-24T05:18:13.141Z,22.20
2018-05-24T05:20:41.192Z,23.12
2018-05-24T05:23:10.367Z,23.08
2018-05-24T05:25:39.097Z,24.67
2018-05-24T05:28:07.146Z,23.12
2018-05-24T05:30:35.967Z,22.13
2018-05-24T05:33:04.549Z,23.50
2018-05-24T05:35:34.418Z,24.10
2018-05-24T05:38:04.050Z,23.95
2018-05-24T05:40:33.116Z,24.58
2018-05-24T05:43:02.005Z,24.40
2018-05-24T05:45:30.517Z,23.25
2018-05-24T05:47:58.601Z,22.65
2018-05-24T05:50:27.177Z,21.90
2018-05-24T05:52:56.319Z,22.40
2018-05-24T05:55:24.925Z,20.80
2018-05-24T05:57:53.741Z,20.45
2018-05-24T06:00:22.401Z,19.40
2018-05-24T06:02:51.187Z,18.17
2018-05-24T06:05:19.972Z,16.58
2018-05-24T06:07:48.044Z,16.80
2018-05-24T06:10:16.833Z,17.37
2018-05-24T06:12:44.916Z,19.45
2018-05-24T06:15:13.808Z,23.65
2018-05-24T06:17:42.381Z,17.05
2018-05-24T06:20:11.146Z,17.58
2018-05-24T06:22:40.809Z,17.60
2018-05-24T06:25:09.914Z,17.75
2018-05-24T06:27:38.656Z,17.55
2018-05-24T06:30:07.489Z,16.92
2018-05-24T06:32:37.052Z,16.73
2018-05-24T06:35:05.892Z,17.00
2018-05-24T06:37:35.652Z,16.75
2018-05-24T06:40:05.305Z,16.15
2018-05-24T06:42:34.077Z,14.70
2018-05-24T06:45:02.930Z,16.05
2018-05-24T06:47:31.764Z,16.10
2018-05-24T06:49:59.849Z,15.65
2018-05-24T06:52:29.244Z,16.65
2018-05-24T06:54:58.824Z,16.27
2018-05-24T06:57:27.633Z,16.77
2018-05-24T06:59:56.400Z,15.40
2018-05-24T07:02:25.277Z,14.90
2018-05-24T07:04:54.157Z,15.35
2018-05-24T07:07:23.050Z,14.65
2018-05-24T07:09:51.889Z,14.57
2018-05-24T07:12:21.453Z,14.13
2018-05-24T07:14:50.181Z,14.32
2018-05-24T07:17:19.121Z,14.00
2018-05-24T07:19:47.745Z,13.75
2018-05-24T07:22:16.653Z,13.20
2018-05-24T07:24:46.233Z,13.50
2018-05-24T07:27:14.846Z,14.18
2018-05-24T07:29:44.497Z,12.10
2018-05-24T07:32:13.671Z,12.02
2018-05-24T07:34:43.516Z,13.35
2018-05-24T07:37:12.705Z,11.35
2018-05-24T07:39:41.546Z,12.07
2018-05-24T07:42:10.229Z,11.00
2018-05-24T07:44:39.201Z,11.70
2018-05-24T07:47:07.972Z,12.13
2018-05-24T07:49:36.675Z,11.95
2018-05-24T07:52:05.470Z,12.02
2018-05-24T07:54:34.692Z,12.05
2018-05-24T07:57:04.805Z,12.68
2018-05-24T07:59:33.373Z,12.37
2018-05-24T08:02:02.338Z,12.13
2018-05-24T08:04:31.365Z,12.37
2018-05-24T08:07:00.673Z,11.75
2018-05-24T08:09:29.577Z,11.82
2018-05-24T08:11:59.289Z,10.80
2018-05-24T08:14:28.669Z,11.50
2018-05-24T08:16:57.477Z,11.10
2018-05-24T08:19:27.269Z,12.27
2018-05-24T08:21:56.021Z,13.80
2018-05-24T08:24:24.953Z,12.60
2018-05-24T08:26:53.745Z,11.93
2018-05-24T08:29:23.298Z,11.65
2018-05-24T08:31:52.037Z,10.52
2018-05-24T08:34:20.984Z,10.02
2018-05-24T08:36:49.810Z,10.65
2018-05-24T08:39:18.701Z,7.78
2018-05-24T08:41:48.484Z,8.45
2018-05-24T08:44:17.268Z,7.40
2018-05-24T08:46:45.896Z,7.95
2018-05-24T08:49:15.269Z,7.68
2018-05-24T08:51:43.938Z,6.97
2018-05-24T08:54:12.529Z,7.95
2018-05-24T08:56:40.584Z,6.95
2018-05-24T08:59:09.694Z,6.70
2018-05-24T09:01:38.417Z,6.82
2018-05-24T09:04:08.493Z,7.45
2018-05-24T09:06:36.559Z,7.60
2018-05-24T09:09:05.515Z,7.43
2018-05-24T09:11:33.568Z,7.32
2018-05-24T09:14:01.690Z,7.40
2018-05-24T09:16:30.433Z,7.55
2018-05-24T09:18:59.891Z,7.50
2018-05-24T09:21:28.637Z,8.52
2018-05-24T09:23:58.333Z,9.00
2018-05-24T09:26:28.001Z,6.43
2018-05-24T09:28:57.108Z,6.65
2018-05-24T09:31:25.828Z,5.90
2018-05-24T09:33:55.466Z,5.80
2018-05-24T09:36:24.428Z,5.20
2018-05-24T09:38:53.697Z,4.93
2018-05-24T09:41:22.763Z,5.40
2018-05-24T09:43:51.665Z,5.80
2018-05-24T09:46:21.373Z,5.50
2018-05-24T09:48:50.360Z,5.72
2018-05-24T09:51:18.437Z,5.80
2018-05-24T09:53:47.009Z,5.40
2018-05-24T09:56:15.105Z,6.00
2018-05-24T09:58:44.113Z,5.35
2018-05-24T10:01:13.128Z,6.18
2018-05-24T10:03:43.021Z,6.15
2018-05-24T10:06:11.976Z,5.70
2018-05-24T10:08:41.517Z,5.40
2018-05-24T10:11:10.276Z,5.57
2018-05-24T10:13:38.816Z,5.28
2018-05-24T10:16:08.579Z,5.68
2018-05-24T10:18:37.183Z,5.85
2018-05-24T10:21:06.481Z,5.62
2018-05-24T10:23:35.602Z,5.18
2018-05-24T10:26:03.680Z,5.62
2018-05-24T10:28:33.037Z,5.57
2018-05-24T10:31:01.737Z,5.75
2018-05-24T10:33:30.542Z,5.50
2018-05-24T10:35:59.385Z,6.35
2018-05-24T10:38:28.117Z,5.72
2018-05-24T10:40:58.528Z,6.43
2018-05-24T10:43:27.665Z,5.87
2018-05-24T10:45:57.923Z,6.00
2018-05-24T10:48:26.287Z,6.10
2018-05-24T10:50:54.400Z,6.22
2018-05-24T10:53:22.845Z,6.43
2018-05-24T10:55:51.362Z,6.87
2018-05-24T10:58:20.253Z,7.22
2018-05-24T11:00:49.349Z,6.80
2018-05-24T11:03:17.805Z,6.37
2018-05-24T11:05:46.592Z,6.40
2018-05-24T11:08:15.405Z,6.30
2018-05-24T11:10:44.293Z,6.22
2018-05-24T11:13:14.227Z,5.47
2018-05-24T11:15:43.893Z,5.72
2018-05-24T11:18:12.467Z,5.60
2018-05-24T11:20:40.992Z,6.90
2018-05-24T11:23:10.167Z,6.93
2018-05-24T11:25:38.937Z,7.57
2018-05-24T11:28:07.773Z,7.37
2018-05-24T11:30:35.850Z,7.40
2018-05-24T11:33:05.522Z,7.40
2018-05-24T11:35:34.125Z,8.20
2018-05-24T11:38:02.220Z,8.85
2018-05-24T11:40:31.055Z,8.00
2018-05-24T11:42:59.761Z,7.37
2018-05-24T11:45:29.992Z,7.93
2018-05-24T11:47:58.841Z,7.53
2018-05-24T11:50:26.909Z,7.60
2018-05-24T11:52:55.602Z,7.45
2018-05-24T11:55:24.341Z,7.18
2018-05-24T11:57:53.233Z,7.72
2018-05-24T12:00:22.578Z,6.90
2018-05-24T12:02:51.466Z,6.87
2018-05-24T12:05:19.991Z,7.80
2018-05-24T12:07:48.649Z,7.43
2018-05-24T12:10:18.081Z,7.30
2018-05-24T12:12:47.701Z,6.97
2018-05-24T12:15:17.453Z,7.55
2018-05-24T12:17:46.053Z,8.23
2018-05-24T12:20:15.253Z,8.25
2018-05-24T12:22:44.725Z,16.10
2018-05-24T12:25:14.375Z,10.00
2018-05-24T12:27:43.093Z,9.45
2018-05-24T12:30:11.958Z,9.63
2018-05-24T12:32:41.261Z,10.20
2018-05-24T12:35:11.016Z,10.40
2018-05-24T12:37:41.308Z,10.15
2018-05-24T12:40:09.399Z,10.88
2018-05-24T12:42:38.181Z,11.43
2018-05-24T12:45:07.745Z,11.38
2018-05-24T12:47:36.010Z,11.23
2018-05-24T12:50:04.088Z,11.02
2018-05-24T12:52:33.095Z,11.95
2018-05-24T12:55:01.885Z,12.15
2018-05-24T12:57:29.961Z,12.13
2018-05-24T12:59:59.047Z,11.07
2018-05-24T13:02:27.113Z,12.25
2018-05-24T13:04:55.187Z,12.90
2018-05-24T13:07:23.343Z,14.87
2018-05-24T13:09:52.256Z,13.20
2018-05-24T13:12:20.949Z,10.30
2018-05-24T13:14:49.863Z,10.50
2018-05-24T13:17:19.685Z,8.13
2018-05-24T13:19:49.078Z,9.00
2018-05-24T13:22:17.977Z,8.95
2018-05-24T13:24:46.985Z,8.95
2018-05-24T13:27:16.367Z,9.05
2018-05-24T13:29:46.615Z,9.55
2018-05-24T13:32:14.703Z,9.43
2018-05-24T13:34:43.581Z,9.45
2018-05-24T13:37:12.280Z,9.63
2018-05-24T13:39:41.382Z,11.07
2018-05-24T13:42:09.486Z,13.60
2018-05-24T13:44:37.581Z,17.23
2018-05-24T13:47:07.285Z,16.40
2018-05-24T13:49:38.026Z,16.77
2018-05-24T13:52:06.956Z,16.33
2018-05-24T13:54:35.000Z,15.38
2018-05-24T13:57:03.115Z,15.48
2018-05-24T13:59:31.173Z,16.67
2018-05-24T14:01:59.331Z,17.10
2018-05-24T14:04:27.337Z,17.58
2018-05-24T14:06:55.424Z,18.92
2018-05-24T14:09:23.485Z,18.48
2018-05-24T14:11:51.588Z,16.83
2018-05-24T14:14:21.284Z,16.73
2018-05-24T14:16:49.365Z,17.02
2018-05-24T14:19:18.356Z,16.92
2018-05-24T14:21:46.420Z,14.63
2018-05-24T14:24:14.501Z,13.00
2018-05-24T14:26:42.852Z,14.15
2018-05-24T14:29:10.920Z,13.95
2018-05-24T14:31:39.025Z,12.90
2018-05-24T14:34:07.096Z,12.65
2018-05-24T14:36:36.770Z,12.23
2018-05-24T14:39:04.944Z,11.07
2018-05-24T14:41:33.031Z,13.15
2018-05-24T14:44:01.416Z,12.85
2018-05-24T14:46:30.112Z,12.37
2018-05-24T14:48:58.952Z,14.13
2018-05-24T14:51:27.049Z,13.70
2018-05-24T14:53:55.760Z,13.02
2018-05-24T14:56:24.628Z,12.85
2018-05-24T14:58:52.692Z,11.88
2018-05-24T15:01:20.813Z,14.27
2018-05-24T15:03:48.868Z,13.20
2018-05-24T15:06:18.164Z,12.82
2018-05-24T15:08:47.039Z,12.70
2018-05-24T15:11:15.615Z,13.68
2018-05-24T15:13:44.532Z,13.90
2018-05-24T15:16:13.495Z,15.05
2018-05-24T15:18:41.593Z,14.38
2018-05-24T15:21:09.666Z,13.90
2018-05-24T15:23:38.017Z,13.55
2018-05-24T15:26:06.114Z,13.00
2018-05-24T15:28:34.205Z,13.68
2018-05-24T15:31:02.664Z,12.93
2018-05-24T15:33:30.709Z,13.20
2018-05-24T15:35:58.809Z,13.73
2018-05-24T15:38:28.520Z,13.38
2018-05-24T15:40:57.804Z,12.98
2018-05-24T15:43:26.769Z,13.05
2018-05-24T15:45:55.601Z,13.23
2018-05-24T15:48:24.277Z,13.50
2018-05-24T15:50:52.356Z,13.02
2018-05-24T15:53:21.112Z,13.30
2018-05-24T15:55:50.041Z,14.07
2018-05-24T15:58:18.924Z,12.52
2018-05-24T16:00:47.049Z,12.85
2018-05-24T16:03:15.482Z,12.43
2018-05-24T16:05:44.332Z,13.85
2018-05-24T16:08:12.440Z,13.45
2018-05-24T16:10:41.433Z,14.50
2018-05-24T16:13:10.273Z,13.80
2018-05-24T16:15:38.869Z,13.73
2018-05-24T16:18:06.941Z,13.48
2018-05-24T16:20:35.728Z,14.57
2018-05-24T16:23:03.840Z,14.13
2018-05-24T16:25:32.833Z,14.48
2018-05-24T16:28:00.886Z,13.77
2018-05-24T16:30:29.956Z,14.43
2018-05-24T16:32:58.123Z,15.23
2018-05-24T16:35:26.189Z,15.27
2018-05-24T16:37:54.936Z,16.05
2018-05-24T16:40:23.797Z,14.90
2018-05-24T16:42:51.853Z,14.18
2018-05-24T16:45:20.277Z,14.05
2018-05-24T16:47:49.113Z,13.95
2018-05-24T16:50:17.908Z,14.87
2018-05-24T16:52:46.829Z,15.80
2018-05-24T16:55:14.917Z,14.43
2018-05-24T16:57:43.752Z,14.82
2018-05-24T17:00:11.861Z,14.35
2018-05-24T17:02:40.725Z,13.15
2018-05-24T17:05:08.841Z,14.32
2018-05-24T17:07:37.701Z,13.90
2018-05-24T17:10:05.808Z,14.05
2018-05-24T17:12:34.697Z,12.65
2018-05-24T17:15:02.709Z,13.88
2018-05-24T17:17:30.792Z,14.55
2018-05-24T17:19:58.915Z,14.68
2018-05-24T17:22:27.765Z,15.38
2018-05-24T17:24:55.873Z,15.35
2018-05-24T17:27:24.805Z,14.82
2018-05-24T17:29:52.902Z,14.75
2018-05-24T17:32:21.075Z,12.70
2018-05-24T17:34:49.160Z,13.18
2018-05-24T17:37:17.245Z,12.63
2018-05-24T17:39:45.310Z,12.73
2018-05-24T17:42:13.405Z,10.93
2018-05-24T17:44:42.227Z,9.55
2018-05-24T17:47:10.613Z,9.23
2018-05-24T17:49:38.689Z,10.15
2018-05-24T17:52:07.843Z,9.73
2018-05-24T17:54:36.906Z,10.25
2018-05-24T17:57:04.965Z,10.02
2018-05-24T17:59:33.027Z,9.60
2018-05-24T18:02:01.941Z,10.98
2018-05-24T18:04:29.992Z,11.12
2018-05-24T18:06:58.056Z,11.40
2018-05-24T18:09:26.165Z,10.90
2018-05-24T18:11:54.945Z,10.25
2018-05-24T18:14:23.004Z,10.70
2018-05-24T18:16:51.097Z,10.70
2018-05-24T18:19:19.165Z,10.77
2018-05-24T18:21:48.033Z,11.20
2018-05-24T18:24:16.120Z,11.75
2018-05-24T18:26:44.677Z,11.70
2018-05-24T18:29:12.745Z,11.23
2018-05-24T18:31:41.665Z,11.73
2018-05-24T18:34:09.720Z,11.25
2018-05-24T18:36:37.777Z,11.88
2018-05-24T18:39:06.976Z,11.68
2018-05-24T18:41:35.080Z,10.88
2018-05-24T18:44:03.162Z,12.10
2018-05-24T18:46:31.285Z,12.70
2018-05-24T18:48:59.380Z,12.45
2018-05-24T18:51:27.436Z,12.55
2018-05-24T18:53:55.516Z,12.50
2018-05-24T18:56:23.577Z,12.70
2018-05-24T18:58:51.677Z,12.43
2018-05-24T19:01:19.957Z,13.07
2018-05-24T19:03:48.117Z,13.25
2018-05-24T19:06:16.214Z,13.18
2018-05-24T19:08:44.305Z,13.93
2018-05-24T19:11:13.164Z,11.93
2018-05-24T19:13:41.249Z,12.90
2018-05-24T19:16:10.122Z,13.10
2018-05-24T19:18:38.209Z,12.93
2018-05-24T19:21:06.274Z,13.45
2018-05-24T19:23:34.417Z,12.10
2018-05-24T19:26:02.497Z,12.75
2018-05-24T19:28:30.753Z,13.35
2018-05-24T19:30:59.148Z,13.65
2018-05-24T19:33:27.237Z,11.65
2018-05-24T19:35:55.321Z,12.90
2018-05-24T19:38:23.405Z,13.07
2018-05-24T19:40:52.338Z,13.45
2018-05-24T19:43:20.429Z,13.27
2018-05-24T19:45:48.541Z,12.70
2018-05-24T19:48:17.393Z,13.75
2018-05-24T19:50:45.488Z,14.27
2018-05-24T19:53:13.830Z,16.15
2018-05-24T19:55:41.902Z,23.00
2018-05-24T19:58:10.001Z,19.98
2018-05-24T20:00:38.377Z,17.55
2018-05-24T20:03:06.461Z,18.90
2018-05-24T20:05:34.533Z,20.10
2018-05-24T20:08:03.077Z,16.12
2018-05-24T20:10:31.190Z,16.17
2018-05-24T20:12:59.307Z,16.27
2018-05-24T20:15:28.137Z,14.90
2018-05-24T20:17:56.380Z,15.65
2018-05-24T20:20:24.484Z,16.83
2018-05-24T20:22:52.566Z,15.43
2018-05-24T20:25:20.610Z,14.02
2018-05-24T20:27:48.673Z,14.48
2018-05-24T20:30:16.989Z,13.65
2018-05-24T20:32:46.041Z,13.77
2018-05-24T20:35:14.061Z,17.30
2018-05-24T20:37:42.902Z,15.40
2018-05-24T20:40:11.025Z,18.70
2018-05-24T20:42:39.893Z,18.17
2018-05-24T20:45:07.977Z,16.83
2018-05-24T20:47:36.312Z,17.37
2018-05-24T20:50:04.428Z,18.17
2018-05-24T20:52:33.264Z,18.00
2018-05-24T20:55:01.581Z,17.42
2018-05-24T20:57:29.665Z,22.02
2018-05-24T20:59:58.525Z,19.00
2018-05-24T21:02:26.597Z,19.85
2018-05-24T21:04:54.696Z,18.83
2018-05-24T21:07:22.819Z,18.17
2018-05-24T21:09:52.158Z,18.23
2018-05-24T21:12:20.225Z,17.60
2018-05-24T21:14:48.300Z,17.20
2018-05-24T21:17:16.576Z,17.20
2018-05-24T21:19:45.789Z,16.95
2018-05-24T21:22:13.837Z,17.95
2018-05-24T21:24:41.921Z,15.45
2018-05-24T21:27:09.993Z,14.87
2018-05-24T21:29:38.835Z,16.25
2018-05-24T21:32:06.942Z,16.95
2018-05-24T21:34:35.328Z,15.93
2018-05-24T21:37:03.413Z,16.33
2018-05-24T21:39:31.457Z,15.88
2018-05-24T21:41:59.548Z,14.68
2018-05-24T21:44:27.597Z,13.32
2018-05-24T21:46:55.689Z,14.10
2018-05-24T21:49:23.760Z,13.88
2018-05-24T21:51:51.845Z,13.23
2018-05-24T21:54:19.888Z,14.27
2018-05-24T21:56:48.002Z,14.05
2018-05-24T21:59:16.825Z,14.23
2018-05-24T22:01:44.927Z,14.05
2018-05-24T22:04:13.314Z,13.45
2018-05-24T22:06:41.397Z,13.93
2018-05-24T22:09:10.748Z,13.80
2018-05-24T22:11:39.137Z,13.32
2018-05-24T22:14:07.212Z,14.13
2018-05-24T22:16:35.294Z,13.85
2018-05-24T22:19:03.625Z,13.48
2018-05-24T22:21:32.589Z,14.05
2018-05-24T22:24:00.661Z,12.98
2018-05-24T22:26:29.129Z,12.65
2018-05-24T22:28:57.195Z,12.00
2018-05-24T22:31:25.261Z,12.77
2018-05-24T22:33:53.638Z,12.65
2018-05-24T22:36:21.714Z,11.38
2018-05-24T22:38:49.777Z,13.30
2018-05-24T22:41:17.877Z,12.60
2018-05-24T22:43:45.928Z,12.85
2018-05-24T22:46:14.026Z,12.25
2018-05-24T22:48:43.105Z,11.82
2018-05-24T22:51:12.097Z,13.35
2018-05-24T22:53:40.152Z,12.27
2018-05-24T22:56:08.209Z,11.90
2018-05-24T22:58:36.821Z,11.38
2018-05-24T23:01:04.906Z,10.68
2018-05-24T23:03:32.981Z,10.45
2018-05-24T23:06:02.145Z,10.10
2018-05-24T23:08:30.205Z,9.90
2018-05-24T23:10:58.276Z,10.13
2018-05-24T23:13:26.701Z,10.68
2018-05-24T23:15:55.671Z,9.80
2018-05-24T23:18:23.760Z,9.73
2018-05-24T23:20:51.830Z,9.33
2018-05-24T23:23:19.896Z,9.67
2018-05-24T23:25:47.948Z,9.70
2018-05-24T23:28:16.057Z,10.63
2018-05-24T23:30:44.888Z,10.03
2018-05-24T23:33:12.968Z,10.70
2018-05-24T23:35:41.277Z,10.13
2018-05-24T23:38:09.357Z,9.50
2018-05-24T23:40:37.645Z,9.40
2018-05-24T23:43:06.508Z,9.00
2018-05-24T23:45:34.597Z,8.90
2018-05-24T23:48:02.664Z,8.50
2018-05-24T23:50:30.734Z,8.60
2018-05-24T23:52:58.956Z,8.50
2018-05-24T23:55:27.042Z,8.40
2018-05-24T23:57:55.141Z,7.80
